sensor_id;sensor_type;location;lat;lon;timestamp;pressure;altitude;pressure_sealevel;temperature;humidity
12666;BME280;58531;59.050;17.416;2022-10-16T00:01:25;100009.22;;;11.21;100.00
12666;BME280;58531;59.050;17.416;2022-10-16T00:03:52;100003.63;;;11.10;100.00
12666;BME280;58531;59.050;17.416;2022-10-16T00:06:20;100012.66;;;11.13;100.00
12666;BME280;58531;59.050;17.416;2022-10-16T00:08:48;100004.94;;;11.15;100.00
12666;BME280;58531;59.050;17.416;2022-10-16T00:11:18;100000.34;;;11.15;100.00
12666;BME280;58531;59.050;17.416;2022-10-16T00:13:47;100002.44;;;11.11;100.00
12666;BME280;58531;59.050;17.416;2022-10-16T00:16:14;99995.47;;;11.05;100.00
12666;BME280;58531;59.050;17.416;2022-10-16T00:18:42;100008.84;;;11.05;100.00
12666;BME280;58531;59.050;17.416;2022-10-16T00:21:10;100006.16;;;11.05;100.00
12666;BME280;58531;59.050;17.416;2022-10-16T00:23:38;99989.22;;;11.08;100.00
12666;BME280;58531;59.050;17.416;2022-10-16T00:26:08;99977.97;;;11.04;100.00
12666;BME280;58531;59.050;17.416;2022-10-16T00:28:37;99982.59;;;11.03;100.00
12666;BME280;58531;59.050;17.416;2022-10-16T00:31:05;99978.25;;;11.06;100.00
12666;BME280;58531;59.050;17.416;2022-10-16T00:33:32;99980.34;;;11.02;100.00
12666;BME280;58531;59.050;17.416;2022-10-16T00:35:59;99988.81;;;11.00;100.00
12666;BME280;58531;59.050;17.416;2022-10-16T00:38:26;99989.84;;;11.03;100.00
12666;BME280;58531;59.050;17.416;2022-10-16T00:40:53;99981.09;;;11.02;100.00
12666;BME280;58531;59.050;17.416;2022-10-16T00:43:39;99987.31;;;11.08;100.00
12666;BME280;58531;59.050;17.416;2022-10-16T00:46:14;99996.06;;;11.09;100.00
12666;BME280;58531;59.050;17.416;2022-10-16T00:48:44;99993.38;;;11.09;100.00
12666;BME280;58531;59.050;17.416;2022-10-16T00:51:12;99986.56;;;11.08;100.00
12666;BME280;58531;59.050;17.416;2022-10-16T00:53:38;99985.41;;;11.00;100.00
12666;BME280;58531;59.050;17.416;2022-10-16T00:56:06;99986.94;;;10.92;100.00
12666;BME280;58531;59.050;17.416;2022-10-16T00:58:33;99986.69;;;10.81;100.00
12666;BME280;58531;59.050;17.416;2022-10-16T01:00:59;99993.81;;;10.75;100.00
12666;BME280;58531;59.050;17.416;2022-10-16T01:03:30;99997.50;;;10.77;100.00
12666;BME280;58531;59.050;17.416;2022-10-16T01:06:07;99998.09;;;10.81;100.00
12666;BME280;58531;59.050;17.416;2022-10-16T01:08:39;99992.59;;;10.85;100.00
12666;BME280;58531;59.050;17.416;2022-10-16T01:11:15;100003.88;;;10.89;100.00
12666;BME280;58531;59.050;17.416;2022-10-16T01:13:48;100002.50;;;10.93;100.00
12666;BME280;58531;59.050;17.416;2022-10-16T01:16:24;100007.97;;;10.99;100.00
12666;BME280;58531;59.050;17.416;2022-10-16T01:18:57;100004.84;;;11.00;100.00
12666;BME280;58531;59.050;17.416;2022-10-16T01:21:28;100018.03;;;11.04;100.00
12666;BME280;58531;59.050;17.416;2022-10-16T01:24:02;100009.88;;;11.07;100.00
12666;BME280;58531;59.050;17.416;2022-10-16T01:26:40;99998.72;;;11.09;100.00
12666;BME280;58531;59.050;17.416;2022-10-16T01:29:18;99995.63;;;11.10;100.00
12666;BME280;58531;59.050;17.416;2022-10-16T01:31:49;99994.13;;;11.09;100.00
12666;BME280;58531;59.050;17.416;2022-10-16T01:34:21;99990.13;;;11.05;100.00
12666;BME280;58531;59.050;17.416;2022-10-16T01:36:52;99992.66;;;11.08;100.00
12666;BME280;58531;59.050;17.416;2022-10-16T01:39:22;99994.56;;;11.08;100.00
12666;BME280;58531;59.050;17.416;2022-10-16T01:41:54;99980.91;;;11.06;100.00
12666;BME280;58531;59.050;17.416;2022-10-16T01:44:28;99986.84;;;11.10;100.00
12666;BME280;58531;59.050;17.416;2022-10-16T01:46:56;99983.88;;;11.08;100.00
12666;BME280;58531;59.050;17.416;2022-10-16T01:49:26;100000.97;;;11.10;100.00
12666;BME280;58531;59.050;17.416;2022-10-16T01:51:56;100000.50;;;11.12;100.00
12666;BME280;58531;59.050;17.416;2022-10-16T01:54:27;100011.63;;;11.19;100.00
12666;BME280;58531;59.050;17.416;2022-10-16T01:56:55;100009.09;;;11.16;100.00
12666;BME280;58531;59.050;17.416;2022-10-16T01:59:26;100010.56;;;11.17;100.00
12666;BME280;58531;59.050;17.416;2022-10-16T02:01:58;100005.69;;;11.15;100.00
12666;BME280;58531;59.050;17.416;2022-10-16T02:04:30;100013.25;;;11.17;100.00
12666;BME280;58531;59.050;17.416;2022-10-16T02:06:58;100003.16;;;11.12;100.00
12666;BME280;58531;59.050;17.416;2022-10-16T02:09:26;100011.34;;;11.08;100.00
12666;BME280;58531;59.050;17.416;2022-10-16T02:11:54;100022.78;;;11.09;100.00
12666;BME280;58531;59.050;17.416;2022-10-16T02:14:23;100015.22;;;11.07;100.00
12666;BME280;58531;59.050;17.416;2022-10-16T02:16:51;100007.66;;;11.06;100.00
12666;BME280;58531;59.050;17.416;2022-10-16T02:19:20;100006.16;;;11.05;100.00
12666;BME280;58531;59.050;17.416;2022-10-16T02:21:51;100011.78;;;11.07;100.00
12666;BME280;58531;59.050;17.416;2022-10-16T02:24:26;100006.75;;;11.09;100.00
12666;BME280;58531;59.050;17.416;2022-10-16T02:27:03;99995.03;;;11.06;100.00
12666;BME280;58531;59.050;17.416;2022-10-16T02:29:32;99997.53;;;11.10;100.00
12666;BME280;58531;59.050;17.416;2022-10-16T02:32:02;99987.75;;;11.07;100.00
12666;BME280;58531;59.050;17.416;2022-10-16T02:34:32;99984.78;;;11.05;100.00
12666;BME280;58531;59.050;17.416;2022-10-16T02:37:02;99973.19;;;11.08;100.00
12666;BME280;58531;59.050;17.416;2022-10-16T02:39:31;99974.69;;;11.09;100.00
12666;BME280;58531;59.050;17.416;2022-10-16T02:41:58;99971.00;;;11.06;100.00
12666;BME280;58531;59.050;17.416;2022-10-16T02:44:24;99958.34;;;11.07;100.00
12666;BME280;58531;59.050;17.416;2022-10-16T02:46:51;99959.59;;;10.97;100.00
12666;BME280;58531;59.050;17.416;2022-10-16T02:49:20;99957.84;;;10.94;100.00
12666;BME280;58531;59.050;17.416;2022-10-16T02:51:46;99953.41;;;10.91;100.00
12666;BME280;58531;59.050;17.416;2022-10-16T02:54:13;99955.22;;;10.85;100.00
12666;BME280;58531;59.050;17.416;2022-10-16T02:56:41;99956.22;;;10.87;100.00
12666;BME280;58531;59.050;17.416;2022-10-16T02:59:08;99954.44;;;10.84;100.00
12666;BME280;58531;59.050;17.416;2022-10-16T03:01:34;99957.59;;;10.83;100.00
12666;BME280;58531;59.050;17.416;2022-10-16T03:04:01;99949.72;;;10.79;100.00
12666;BME280;58531;59.050;17.416;2022-10-16T03:06:29;99954.34;;;10.79;100.00
12666;BME280;58531;59.050;17.416;2022-10-16T03:08:56;99952.41;;;10.79;100.00
12666;BME280;58531;59.050;17.416;2022-10-16T03:11:23;99960.88;;;10.78;100.00
12666;BME280;58531;59.050;17.416;2022-10-16T03:13:49;99953.28;;;10.76;100.00
12666;BME280;58531;59.050;17.416;2022-10-16T03:16:16;99957.44;;;10.77;100.00
12666;BME280;58531;59.050;17.416;2022-10-16T03:18:43;99948.72;;;10.77;100.00
12666;BME280;58531;59.050;17.416;2022-10-16T03:21:10;99951.22;;;10.71;100.00
12666;BME280;58531;59.050;17.416;2022-10-16T03:23:38;99959.72;;;10.70;100.00
12666;BME280;58531;59.050;17.416;2022-10-16T03:26:05;99945.16;;;10.71;100.00
12666;BME280;58531;59.050;17.416;2022-10-16T03:28:32;99941.88;;;10.76;100.00
12666;BME280;58531;59.050;17.416;2022-10-16T03:30:58;99942.63;;;10.76;100.00
12666;BME280;58531;59.050;17.416;2022-10-16T03:33:25;99933.41;;;10.77;100.00
12666;BME280;58531;59.050;17.416;2022-10-16T03:35:53;99915.47;;;10.78;100.00
12666;BME280;58531;59.050;17.416;2022-10-16T03:38:20;99924.97;;;10.79;100.00
12666;BME280;58531;59.050;17.416;2022-10-16T03:40:49;99926.47;;;10.71;100.00
12666;BME280;58531;59.050;17.416;2022-10-16T03:43:15;99931.34;;;10.72;100.00
12666;BME280;58531;59.050;17.416;2022-10-16T03:45:42;99934.50;;;10.71;100.00
12666;BME280;58531;59.050;17.416;2022-10-16T03:48:09;99931.53;;;10.69;100.00
12666;BME280;58531;59.050;17.416;2022-10-16T03:50:36;99932.44;;;10.66;100.00
12666;BME280;58531;59.050;17.416;2022-10-16T03:53:03;99933.63;;;10.65;100.00
12666;BME280;58531;59.050;17.416;2022-10-16T03:55:30;99942.53;;;10.62;100.00
12666;BME280;58531;59.050;17.416;2022-10-16T03:57:58;99946.38;;;10.61;100.00
12666;BME280;58531;59.050;17.416;2022-10-16T04:00:25;99959.31;;;10.62;100.00
12666;BME280;58531;59.050;17.416;2022-10-16T04:02:52;99947.88;;;10.62;100.00
12666;BME280;58531;59.050;17.416;2022-10-16T04:05:19;99947.13;;;10.61;100.00
12666;BME280;58531;59.050;17.416;2022-10-16T04:07:45;99962.41;;;10.61;100.00
12666;BME280;58531;59.050;17.416;2022-10-16T04:10:12;99958.72;;;10.58;100.00
12666;BME280;58531;59.050;17.416;2022-10-16T04:12:39;99954.41;;;10.61;100.00
12666;BME280;58531;59.050;17.416;2022-10-16T04:15:09;99952.91;;;10.60;100.00
12666;BME280;58531;59.050;17.416;2022-10-16T04:17:36;99956.47;;;10.57;100.00
12666;BME280;58531;59.050;17.416;2022-10-16T04:20:03;99952.63;;;10.58;100.00
12666;BME280;58531;59.050;17.416;2022-10-16T04:22:30;99952.19;;;10.59;100.00
12666;BME280;58531;59.050;17.416;2022-10-16T04:24:57;99953.22;;;10.62;100.00
12666;BME280;58531;59.050;17.416;2022-10-16T04:27:24;99951.00;;;10.60;100.00
12666;BME280;58531;59.050;17.416;2022-10-16T04:29:50;99947.28;;;10.58;100.00
12666;BME280;58531;59.050;17.416;2022-10-16T04:32:18;99955.59;;;10.60;100.00
12666;BME280;58531;59.050;17.416;2022-10-16T04:34:45;99957.81;;;10.61;100.00
12666;BME280;58531;59.050;17.416;2022-10-16T04:37:12;99945.66;;;10.60;100.00
12666;BME280;58531;59.050;17.416;2022-10-16T04:39:39;99952.47;;;10.61;100.00
12666;BME280;58531;59.050;17.416;2022-10-16T04:42:05;99949.81;;;10.61;100.00
12666;BME280;58531;59.050;17.416;2022-10-16T04:44:32;99954.41;;;10.61;100.00
12666;BME280;58531;59.050;17.416;2022-10-16T04:46:59;99950.53;;;10.62;100.00
12666;BME280;58531;59.050;17.416;2022-10-16T04:49:27;99950.25;;;10.60;100.00
12666;BME280;58531;59.050;17.416;2022-10-16T04:51:54;99943.28;;;10.62;100.00
12666;BME280;58531;59.050;17.416;2022-10-16T04:54:21;99927.97;;;10.63;100.00
12666;BME280;58531;59.050;17.416;2022-10-16T04:56:47;99931.13;;;10.61;100.00
12666;BME280;58531;59.050;17.416;2022-10-16T04:59:17;99933.31;;;10.63;100.00
12666;BME280;58531;59.050;17.416;2022-10-16T05:01:44;99940.59;;;10.62;100.00
12666;BME280;58531;59.050;17.416;2022-10-16T05:04:11;99941.03;;;10.61;100.00
12666;BME280;58531;59.050;17.416;2022-10-16T05:06:40;99942.81;;;10.64;100.00
12666;BME280;58531;59.050;17.416;2022-10-16T05:09:07;99937.75;;;10.66;100.00
12666;BME280;58531;59.050;17.416;2022-10-16T05:11:34;99936.88;;;10.69;100.00
12666;BME280;58531;59.050;17.416;2022-10-16T05:14:01;99940.56;;;10.71;100.00
12666;BME280;58531;59.050;17.416;2022-10-16T05:16:28;99943.50;;;10.73;100.00
12666;BME280;58531;59.050;17.416;2022-10-16T05:18:55;99951.69;;;10.70;100.00
12666;BME280;58531;59.050;17.416;2022-10-16T05:21:22;99950.78;;;10.73;100.00
12666;BME280;58531;59.050;17.416;2022-10-16T05:23:50;99947.22;;;10.76;100.00
12666;BME280;58531;59.050;17.416;2022-10-16T05:26:19;99945.56;;;10.78;100.00
12666;BME280;58531;59.050;17.416;2022-10-16T05:28:46;99948.38;;;10.84;100.00
12666;BME280;58531;59.050;17.416;2022-10-16T05:31:13;99953.56;;;10.87;100.00
12666;BME280;58531;59.050;17.416;2022-10-16T05:33:39;99955.03;;;10.88;100.00
12666;BME280;58531;59.050;17.416;2022-10-16T05:36:08;99948.97;;;10.88;100.00
12666;BME280;58531;59.050;17.416;2022-10-16T05:38:35;99948.06;;;10.91;100.00
12666;BME280;58531;59.050;17.416;2022-10-16T05:41:04;99955.47;;;10.96;100.00
12666;BME280;58531;59.050;17.416;2022-10-16T05:43:32;99959.88;;;10.99;100.00
12666;BME280;58531;59.050;17.416;2022-10-16T05:46:00;99962.84;;;11.01;100.00
12666;BME280;58531;59.050;17.416;2022-10-16T05:48:28;99961.66;;;11.02;100.00
12666;BME280;58531;59.050;17.416;2022-10-16T05:50:58;99967.28;;;11.04;100.00
12666;BME280;58531;59.050;17.416;2022-10-16T05:53:27;99972.19;;;11.05;100.00
12666;BME280;58531;59.050;17.416;2022-10-16T05:55:54;99977.53;;;11.05;100.00
12666;BME280;58531;59.050;17.416;2022-10-16T05:58:23;99987.59;;;11.10;100.00
12666;BME280;58531;59.050;17.416;2022-10-16T06:00:54;99986.84;;;11.10;100.00
12666;BME280;58531;59.050;17.416;2022-10-16T06:03:22;99987.59;;;11.10;100.00
12666;BME280;58531;59.050;17.416;2022-10-16T06:05:51;99992.31;;;11.15;100.00
12666;BME280;58531;59.050;17.416;2022-10-16T06:08:20;99998.25;;;11.19;100.00
12666;BME280;58531;59.050;17.416;2022-10-16T06:10:47;99997.31;;;11.22;100.00
12666;BME280;58531;59.050;17.416;2022-10-16T06:13:15;99996.59;;;11.22;100.00
12666;BME280;58531;59.050;17.416;2022-10-16T06:15:43;100008.47;;;11.21;100.00
12666;BME280;58531;59.050;17.416;2022-10-16T06:18:10;100003.69;;;11.25;100.00
12666;BME280;58531;59.050;17.416;2022-10-16T06:20:37;100003.25;;;11.26;100.00
12666;BME280;58531;59.050;17.416;2022-10-16T06:23:04;100005.47;;;11.28;100.00
12666;BME280;58531;59.050;17.416;2022-10-16T06:25:31;100006.47;;;11.30;100.00
12666;BME280;58531;59.050;17.416;2022-10-16T06:27:58;100007.81;;;11.35;100.00
12666;BME280;58531;59.050;17.416;2022-10-16T06:30:25;100009.28;;;11.36;100.00
12666;BME280;58531;59.050;17.416;2022-10-16T06:32:53;100012.25;;;11.38;100.00
12666;BME280;58531;59.050;17.416;2022-10-16T06:35:20;100010.44;;;11.44;100.00
12666;BME280;58531;59.050;17.416;2022-10-16T06:37:47;100012.03;;;11.50;100.00
12666;BME280;58531;59.050;17.416;2022-10-16T06:40:14;100009.34;;;11.50;100.00
12666;BME280;58531;59.050;17.416;2022-10-16T06:42:41;100008.28;;;11.57;100.00
12666;BME280;58531;59.050;17.416;2022-10-16T06:45:08;99996.13;;;11.56;100.00
12666;BME280;58531;59.050;17.416;2022-10-16T06:47:35;100012.44;;;11.58;100.00
12666;BME280;58531;59.050;17.416;2022-10-16T06:50:04;100013.94;;;11.59;100.00
12666;BME280;58531;59.050;17.416;2022-10-16T06:52:33;100015.97;;;11.64;100.00
12666;BME280;58531;59.050;17.416;2022-10-16T06:55:00;100012.88;;;11.65;100.00
12666;BME280;58531;59.050;17.416;2022-10-16T06:57:28;100010.56;;;11.73;100.00
12666;BME280;58531;59.050;17.416;2022-10-16T06:59:55;100009.19;;;11.77;100.00
12666;BME280;58531;59.050;17.416;2022-10-16T07:02:22;100009.47;;;11.79;100.00
12666;BME280;58531;59.050;17.416;2022-10-16T07:04:48;100015.31;;;11.77;100.00
12666;BME280;58531;59.050;17.416;2022-10-16T07:07:17;100015.53;;;11.88;100.00
12666;BME280;58531;59.050;17.416;2022-10-16T07:09:43;100016.72;;;11.87;100.00
12666;BME280;58531;59.050;17.416;2022-10-16T07:12:10;100013.75;;;11.85;100.00
12666;BME280;58531;59.050;17.416;2022-10-16T07:14:37;100017.84;;;11.95;100.00
12666;BME280;58531;59.050;17.416;2022-10-16T07:17:04;100020.09;;;12.11;100.00
12666;BME280;58531;59.050;17.416;2022-10-16T07:19:30;100013.25;;;12.10;100.00
12666;BME280;58531;59.050;17.416;2022-10-16T07:21:57;100014.03;;;12.25;100.00
12666;BME280;58531;59.050;17.416;2022-10-16T07:24:25;100017.75;;;12.42;100.00
12666;BME280;58531;59.050;17.416;2022-10-16T07:26:52;100018.94;;;12.56;100.00
12666;BME280;58531;59.050;17.416;2022-10-16T07:29:20;100023.28;;;12.68;100.00
12666;BME280;58531;59.050;17.416;2022-10-16T07:31:48;100032.88;;;12.60;100.00
12666;BME280;58531;59.050;17.416;2022-10-16T07:34:17;100019.66;;;12.56;100.00
12666;BME280;58531;59.050;17.416;2022-10-16T07:36:47;100027.88;;;12.67;100.00
12666;BME280;58531;59.050;17.416;2022-10-16T07:39:14;100029.38;;;12.54;100.00
12666;BME280;58531;59.050;17.416;2022-10-16T07:41:42;100022.38;;;12.71;100.00
12666;BME280;58531;59.050;17.416;2022-10-16T07:44:09;100024.56;;;12.72;100.00
12666;BME280;58531;59.050;17.416;2022-10-16T07:46:36;100028.53;;;12.77;100.00
12666;BME280;58531;59.050;17.416;2022-10-16T07:49:03;100034.16;;;12.79;100.00
12666;BME280;58531;59.050;17.416;2022-10-16T07:51:30;100036.31;;;12.75;100.00
12666;BME280;58531;59.050;17.416;2022-10-16T07:53:57;100040.44;;;12.61;100.00
12666;BME280;58531;59.050;17.416;2022-10-16T07:56:24;100036.09;;;12.49;100.00
12666;BME280;58531;59.050;17.416;2022-10-16T07:58:52;100042.69;;;12.63;100.00
12666;BME280;58531;59.050;17.416;2022-10-16T08:01:19;100042.50;;;12.66;100.00
12666;BME280;58531;59.050;17.416;2022-10-16T08:03:47;100045.06;;;12.75;100.00
12666;BME280;58531;59.050;17.416;2022-10-16T08:06:15;100043.59;;;12.89;100.00
12666;BME280;58531;59.050;17.416;2022-10-16T08:08:42;100044.78;;;13.02;100.00
12666;BME280;58531;59.050;17.416;2022-10-16T08:11:09;100047.09;;;13.09;100.00
12666;BME280;58531;59.050;17.416;2022-10-16T08:13:35;100049.94;;;13.20;100.00
12666;BME280;58531;59.050;17.416;2022-10-16T08:16:04;100059.50;;;13.06;100.00
12666;BME280;58531;59.050;17.416;2022-10-16T08:18:33;100060.06;;;13.10;100.00
12666;BME280;58531;59.050;17.416;2022-10-16T08:21:01;100067.56;;;12.92;100.00
12666;BME280;58531;59.050;17.416;2022-10-16T08:23:29;100072.16;;;13.06;100.00
12666;BME280;58531;59.050;17.416;2022-10-16T08:26:00;100066.50;;;13.04;100.00
12666;BME280;58531;59.050;17.416;2022-10-16T08:28:27;100074.44;;;13.27;100.00
12666;BME280;58531;59.050;17.416;2022-10-16T08:30:54;100071.34;;;13.49;100.00
12666;BME280;58531;59.050;17.416;2022-10-16T08:33:23;100075.09;;;13.57;100.00
12666;BME280;58531;59.050;17.416;2022-10-16T08:35:51;100065.47;;;13.65;99.73
12666;BME280;58531;59.050;17.416;2022-10-16T08:38:18;100064.03;;;13.49;97.79
12666;BME280;58531;59.050;17.416;2022-10-16T08:40:45;100064.91;;;13.41;97.83
12666;BME280;58531;59.050;17.416;2022-10-16T08:43:34;100066.09;;;13.40;98.73
12666;BME280;58531;59.050;17.416;2022-10-16T08:46:20;100070.06;;;13.44;99.41
12666;BME280;58531;59.050;17.416;2022-10-16T08:48:51;100067.38;;;13.44;98.34
12666;BME280;58531;59.050;17.416;2022-10-16T08:51:21;100073.28;;;13.48;98.09
12666;BME280;58531;59.050;17.416;2022-10-16T08:53:52;100063.69;;;13.42;97.35
12666;BME280;58531;59.050;17.416;2022-10-16T08:56:20;100066.16;;;13.45;97.32
12666;BME280;58531;59.050;17.416;2022-10-16T08:58:47;100072.56;;;13.48;96.55
12666;BME280;58531;59.050;17.416;2022-10-16T09:01:15;100066.88;;;13.60;97.15
12666;BME280;58531;59.050;17.416;2022-10-16T09:04:07;100075.50;;;13.50;96.97
12666;BME280;58531;59.050;17.416;2022-10-16T09:06:46;100072.16;;;13.55;96.47
12666;BME280;58531;59.050;17.416;2022-10-16T09:09:28;100069.16;;;13.67;95.77
12666;BME280;58531;59.050;17.416;2022-10-16T09:12:05;100070.56;;;13.63;95.72
12666;BME280;58531;59.050;17.416;2022-10-16T09:14:43;100073.31;;;13.68;96.11
12666;BME280;58531;59.050;17.416;2022-10-16T09:17:29;100070.69;;;13.74;94.97
12666;BME280;58531;59.050;17.416;2022-10-16T09:20:11;100074.81;;;13.69;96.48
12666;BME280;58531;59.050;17.416;2022-10-16T09:22:40;100071.75;;;13.62;95.14
12666;BME280;58531;59.050;17.416;2022-10-16T09:25:12;100073.78;;;13.67;96.82
12666;BME280;58531;59.050;17.416;2022-10-16T09:27:40;100073.06;;;13.66;96.27
12666;BME280;58531;59.050;17.416;2022-10-16T09:30:12;100057.41;;;13.65;93.14
12666;BME280;58531;59.050;17.416;2022-10-16T09:32:40;100060.69;;;13.54;93.83
12666;BME280;58531;59.050;17.416;2022-10-16T09:35:14;100059.81;;;13.43;94.19
12666;BME280;58531;59.050;17.416;2022-10-16T09:37:43;100061.56;;;13.46;94.10
12666;BME280;58531;59.050;17.416;2022-10-16T09:40:23;100059.41;;;13.50;94.39
12666;BME280;58531;59.050;17.416;2022-10-16T09:42:53;100062.50;;;13.63;94.44
12666;BME280;58531;59.050;17.416;2022-10-16T09:45:23;100070.25;;;13.75;93.64
12666;BME280;58531;59.050;17.416;2022-10-16T09:47:50;100061.72;;;13.77;93.76
12666;BME280;58531;59.050;17.416;2022-10-16T09:50:23;100062.53;;;13.83;91.01
12666;BME280;58531;59.050;17.416;2022-10-16T09:53:03;100069.88;;;14.08;89.79
12666;BME280;58531;59.050;17.416;2022-10-16T09:55:30;100070.91;;;14.30;91.01
12666;BME280;58531;59.050;17.416;2022-10-16T09:57:56;100068.69;;;14.48;89.08
12666;BME280;58531;59.050;17.416;2022-10-16T10:00:24;100070.63;;;14.48;87.36
12666;BME280;58531;59.050;17.416;2022-10-16T10:02:52;100076.63;;;14.18;89.24
12666;BME280;58531;59.050;17.416;2022-10-16T10:05:22;100069.84;;;14.02;88.55
12666;BME280;58531;59.050;17.416;2022-10-16T10:07:55;100069.88;;;14.08;89.78
12666;BME280;58531;59.050;17.416;2022-10-16T10:10:26;100063.22;;;14.18;89.48
12666;BME280;58531;59.050;17.416;2022-10-16T10:12:54;100064.06;;;14.09;91.10
12666;BME280;58531;59.050;17.416;2022-10-16T10:15:22;100055.56;;;13.91;86.28
12666;BME280;58531;59.050;17.416;2022-10-16T10:17:51;100059.38;;;14.04;88.38
12666;BME280;58531;59.050;17.416;2022-10-16T10:20:26;100058.91;;;14.25;89.26
12666;BME280;58531;59.050;17.416;2022-10-16T10:22:54;100062.69;;;14.39;86.41
12666;BME280;58531;59.050;17.416;2022-10-16T10:25:44;100068.59;;;14.43;85.21
12666;BME280;58531;59.050;17.416;2022-10-16T10:28:43;100067.56;;;14.60;82.99
12666;BME280;58531;59.050;17.416;2022-10-16T10:31:18;100067.34;;;14.64;84.59
12666;BME280;58531;59.050;17.416;2022-10-16T10:33:54;100064.13;;;14.85;83.20
12666;BME280;58531;59.050;17.416;2022-10-16T10:36:33;100065.03;;;14.77;83.42
12666;BME280;58531;59.050;17.416;2022-10-16T10:39:03;100066.38;;;14.92;82.94
12666;BME280;58531;59.050;17.416;2022-10-16T10:41:55;100063.25;;;14.99;83.64
12666;BME280;58531;59.050;17.416;2022-10-16T10:44:32;100063.22;;;14.94;82.79
12666;BME280;58531;59.050;17.416;2022-10-16T10:47:12;100056.84;;;14.91;83.65
12666;BME280;58531;59.050;17.416;2022-10-16T10:49:53;100061.97;;;14.64;84.10
12666;BME280;58531;59.050;17.416;2022-10-16T10:52:41;100063.13;;;14.57;84.33
12666;BME280;58531;59.050;17.416;2022-10-16T10:55:16;100059.56;;;14.40;85.67
12666;BME280;58531;59.050;17.416;2022-10-16T10:57:58;100061.72;;;14.36;85.49
12666;BME280;58531;59.050;17.416;2022-10-16T11:00:31;100057.44;;;14.24;85.00
12666;BME280;58531;59.050;17.416;2022-10-16T11:03:09;100057.56;;;13.96;84.37
12666;BME280;58531;59.050;17.416;2022-10-16T11:05:42;100060.91;;;13.91;85.23
12666;BME280;58531;59.050;17.416;2022-10-16T11:08:16;100044.53;;;13.89;86.58
12666;BME280;58531;59.050;17.416;2022-10-16T11:10:51;100038.16;;;14.06;86.80
12666;BME280;58531;59.050;17.416;2022-10-16T11:13:26;100038.59;;;14.44;85.14
12666;BME280;58531;59.050;17.416;2022-10-16T11:15:58;100034.34;;;14.63;83.76
12666;BME280;58531;59.050;17.416;2022-10-16T11:18:31;100026.63;;;14.71;82.60
12666;BME280;58531;59.050;17.416;2022-10-16T11:21:04;100034.75;;;14.82;83.60
12666;BME280;58531;59.050;17.416;2022-10-16T11:23:38;100024.47;;;15.11;81.62
12666;BME280;58531;59.050;17.416;2022-10-16T11:26:14;100023.81;;;15.22;79.57
12666;BME280;58531;59.050;17.416;2022-10-16T11:28:46;100025.44;;;14.77;79.91
12666;BME280;58531;59.050;17.416;2022-10-16T11:31:18;100026.56;;;14.65;80.72
12666;BME280;58531;59.050;17.416;2022-10-16T11:33:50;100015.88;;;14.45;82.95
12666;BME280;58531;59.050;17.416;2022-10-16T11:36:22;100019.41;;;14.31;81.55
12666;BME280;58531;59.050;17.416;2022-10-16T11:38:57;100008.53;;;14.20;84.55
12666;BME280;58531;59.050;17.416;2022-10-16T11:41:29;100009.34;;;14.26;84.46
12666;BME280;58531;59.050;17.416;2022-10-16T11:44:21;100000.06;;;14.27;82.53
12666;BME280;58531;59.050;17.416;2022-10-16T11:46:54;99997.97;;;14.37;80.11
12666;BME280;58531;59.050;17.416;2022-10-16T11:49:26;99990.81;;;14.59;82.12
12666;BME280;58531;59.050;17.416;2022-10-16T11:51:59;99981.75;;;14.88;81.26
12666;BME280;58531;59.050;17.416;2022-10-16T11:54:38;99979.75;;;14.77;80.75
12666;BME280;58531;59.050;17.416;2022-10-16T11:57:11;99972.38;;;14.72;80.41
12666;BME280;58531;59.050;17.416;2022-10-16T11:59:43;99963.94;;;14.59;78.69
12666;BME280;58531;59.050;17.416;2022-10-16T12:02:29;99953.41;;;14.50;80.42
12666;BME280;58531;59.050;17.416;2022-10-16T12:05:06;99948.97;;;14.47;80.82
12666;BME280;58531;59.050;17.416;2022-10-16T12:07:43;99948.19;;;14.41;81.48
12666;BME280;58531;59.050;17.416;2022-10-16T12:10:22;99949.19;;;14.18;82.36
12666;BME280;58531;59.050;17.416;2022-10-16T12:12:49;99956.53;;;13.98;82.08
12666;BME280;58531;59.050;17.416;2022-10-16T12:15:23;99959.00;;;13.76;82.49
12666;BME280;58531;59.050;17.416;2022-10-16T12:17:50;99957.84;;;13.83;83.66
12666;BME280;58531;59.050;17.416;2022-10-16T12:20:26;99955.03;;;13.92;83.24
12666;BME280;58531;59.050;17.416;2022-10-16T12:22:57;99950.19;;;13.96;83.58
12666;BME280;58531;59.050;17.416;2022-10-16T12:25:28;99945.75;;;13.93;82.58
12666;BME280;58531;59.050;17.416;2022-10-16T12:27:58;99945.34;;;14.00;83.74
12666;BME280;58531;59.050;17.416;2022-10-16T12:30:27;99940.91;;;13.97;82.53
12666;BME280;58531;59.050;17.416;2022-10-16T12:32:55;99932.59;;;13.95;82.06
12666;BME280;58531;59.050;17.416;2022-10-16T12:35:25;99936.91;;;14.12;83.52
12666;BME280;58531;59.050;17.416;2022-10-16T12:37:53;99931.75;;;14.65;83.16
12666;BME280;58531;59.050;17.416;2022-10-16T12:40:28;99927.09;;;15.02;80.33
12666;BME280;58531;59.050;17.416;2022-10-16T12:42:56;99934.88;;;14.94;78.51
12666;BME280;58531;59.050;17.416;2022-10-16T12:45:26;99912.34;;;14.50;79.83
12666;BME280;58531;59.050;17.416;2022-10-16T12:47:54;99917.84;;;14.35;80.52
12666;BME280;58531;59.050;17.416;2022-10-16T12:50:27;99912.91;;;14.28;82.35
12666;BME280;58531;59.050;17.416;2022-10-16T12:52:56;99916.59;;;14.31;81.31